createdAt,value
2022-11-22T00:00:00.593Z,8.9
2022-11-22T00:01:00.303Z,8.9
2022-11-22T00:02:00.374Z,8.9
2022-11-22T00:03:00.332Z,8.9
2022-11-22T00:04:00.336Z,8.9
2022-11-22T00:05:00.299Z,8.8
2022-11-22T00:06:00.427Z,8.8
2022-11-22T00:07:00.325Z,8.8
2022-11-22T00:08:00.391Z,8.8
2022-11-22T00:09:00.494Z,8.8
2022-11-22T00:10:00.360Z,8.9
2022-11-22T00:11:00.413Z,8.8
2022-11-22T00:12:00.497Z,8.9
2022-11-22T00:13:00.307Z,8.9
2022-11-22T00:14:00.358Z,8.9
2022-11-22T00:15:00.317Z,8.9
2022-11-22T00:16:00.276Z,9.0
2022-11-22T00:17:00.312Z,9.0
2022-11-22T00:18:00.497Z,9.0
2022-11-22T00:19:00.349Z,9.0
2022-11-22T00:20:00.328Z,9.1
2022-11-22T00:21:00.306Z,9.1
2022-11-22T00:22:00.373Z,9.1
2022-11-22T00:23:00.438Z,9.1
2022-11-22T00:24:00.596Z,9.1
2022-11-22T00:25:00.306Z,9.1
2022-11-22T00:26:00.309Z,9.0
2022-11-22T00:27:00.279Z,9.0
2022-11-22T00:28:00.375Z,9.0
2022-11-22T00:29:00.318Z,8.9
2022-11-22T00:30:00.462Z,8.9
2022-11-22T00:31:00.318Z,8.9
2022-11-22T00:32:00.305Z,8.9
2022-11-22T00:33:00.301Z,8.9
2022-11-22T00:34:00.423Z,8.9
2022-11-22T00:35:00.304Z,8.9
2022-11-22T00:36:00.529Z,8.9
2022-11-22T00:37:00.292Z,8.9
2022-11-22T00:38:00.340Z,8.9
2022-11-22T00:39:00.428Z,8.9
2022-11-22T00:40:00.320Z,9.0
2022-11-22T00:41:00.311Z,9.0
2022-11-22T00:42:00.660Z,9.1
2022-11-22T00:43:00.340Z,9.2
2022-11-22T00:44:00.332Z,9.2
2022-11-22T00:45:00.308Z,9.2
2022-11-22T00:46:00.326Z,9.2
2022-11-22T00:47:00.308Z,9.2
2022-11-22T00:48:00.569Z,9.3
2022-11-22T00:49:00.351Z,9.3
2022-11-22T00:50:00.294Z,9.3
2022-11-22T00:51:00.373Z,9.3
2022-11-22T00:52:00.347Z,9.3
2022-11-22T00:53:00.320Z,9.3
2022-11-22T00:54:00.523Z,9.3
2022-11-22T00:55:00.323Z,9.3
2022-11-22T00:56:00.336Z,9.3
2022-11-22T00:57:00.355Z,9.4
2022-11-22T00:58:00.276Z,9.4
2022-11-22T00:59:00.316Z,9.4
2022-11-22T01:00:00.564Z,9.4
2022-11-22T01:01:00.447Z,9.4
2022-11-22T01:02:00.337Z,9.4
2022-11-22T01:03:00.308Z,9.4
2022-11-22T01:04:00.327Z,9.4
2022-11-22T01:05:00.348Z,9.4
2022-11-22T01:06:00.467Z,9.4
2022-11-22T01:07:00.298Z,9.3
2022-11-22T01:08:00.398Z,9.3
2022-11-22T01:09:00.382Z,9.3
2022-11-22T01:10:00.527Z,9.3
2022-11-22T01:11:00.344Z,9.2
2022-11-22T01:12:00.621Z,9.2
2022-11-22T01:13:00.412Z,9.2
2022-11-22T01:14:00.303Z,9.2
2022-11-22T01:15:00.354Z,9.2
2022-11-22T01:16:00.324Z,9.2
2022-11-22T01:17:00.315Z,9.2
2022-11-22T01:18:00.475Z,9.2
2022-11-22T01:19:00.358Z,9.2
2022-11-22T01:20:00.320Z,9.2
2022-11-22T01:21:00.375Z,9.2
2022-11-22T01:22:00.349Z,9.2
2022-11-22T01:23:00.481Z,9.2
2022-11-22T01:24:00.511Z,9.2
2022-11-22T01:25:00.456Z,9.2
2022-11-22T01:26:00.428Z,9.2
2022-11-22T01:27:00.415Z,9.2
2022-11-22T01:28:00.343Z,9.2
2022-11-22T01:29:00.361Z,9.2
2022-11-22T01:30:00.459Z,9.2
2022-11-22T01:31:00.443Z,9.2
2022-11-22T01:32:00.354Z,9.2
2022-11-22T01:33:00.347Z,9.2
2022-11-22T01:34:00.380Z,9.2
2022-11-22T01:35:00.338Z,9.2
2022-11-22T01:36:00.535Z,9.2
2022-11-22T01:37:00.435Z,9.2
2022-11-22T01:38:00.341Z,9.2
2022-11-22T01:39:00.323Z,9.2
2022-11-22T01:40:00.316Z,9.2
2022-11-22T01:41:00.427Z,9.2
2022-11-22T01:42:00.575Z,9.2
2022-11-22T01:43:00.351Z,9.2
2022-11-22T01:44:00.354Z,9.2
2022-11-22T01:45:00.321Z,9.2
2022-11-22T01:46:00.315Z,9.2
2022-11-22T01:47:00.305Z,9.2
2022-11-22T01:48:00.558Z,9.2
2022-11-22T01:49:00.324Z,9.2
2022-11-22T01:50:00.290Z,9.2
2022-11-22T01:51:00.279Z,9.2
2022-11-22T01:52:00.389Z,9.2
2022-11-22T01:53:00.361Z,9.2
2022-11-22T01:54:00.414Z,9.2
2022-11-22T01:55:00.376Z,9.2
2022-11-22T01:56:00.339Z,9.2
2022-11-22T01:57:00.309Z,9.3
2022-11-22T01:58:00.550Z,9.3
2022-11-22T01:59:00.348Z,9.3
2022-11-22T02:00:00.487Z,9.3
2022-11-22T02:01:00.365Z,9.3
2022-11-22T02:02:00.381Z,9.3
2022-11-22T02:03:00.296Z,9.3
2022-11-22T02:04:00.373Z,9.3
2022-11-22T02:05:00.355Z,9.3
2022-11-22T02:06:00.444Z,9.3
2022-11-22T02:07:00.294Z,9.3
2022-11-22T02:08:00.402Z,9.3
2022-11-22T02:09:00.357Z,9.3
2022-11-22T02:10:00.362Z,9.3
2022-11-22T02:11:00.378Z,9.2
2022-11-22T02:12:00.431Z,9.2
2022-11-22T02:13:00.388Z,9.2
2022-11-22T02:14:00.308Z,9.1
2022-11-22T02:15:00.277Z,9.1
2022-11-22T02:16:00.320Z,9.0
2022-11-22T02:17:00.311Z,9.0
2022-11-22T02:18:00.982Z,9.0
2022-11-22T02:19:00.310Z,8.9
2022-11-22T02:20:00.337Z,8.9
2022-11-22T02:21:00.338Z,8.9
2022-11-22T02:22:00.327Z,8.9
2022-11-22T02:23:00.334Z,8.8
2022-11-22T02:24:00.443Z,8.8
2022-11-22T02:25:00.307Z,8.8
2022-11-22T02:26:00.307Z,8.8
2022-11-22T02:27:00.293Z,8.8
2022-11-22T02:28:00.460Z,8.8
2022-11-22T02:29:00.328Z,8.8
2022-11-22T02:30:00.385Z,8.8
2022-11-22T02:31:00.300Z,8.8
2022-11-22T02:32:00.332Z,8.9
2022-11-22T02:33:00.307Z,8.9
2022-11-22T02:34:01.832Z,8.9
2022-11-22T02:35:00.395Z,8.9
2022-11-22T02:36:00.442Z,8.9
2022-11-22T02:37:00.340Z,8.9
2022-11-22T02:38:00.318Z,8.9
2022-11-22T02:39:00.388Z,8.9
2022-11-22T02:40:00.355Z,8.9
2022-11-22T02:41:00.357Z,8.9
2022-11-22T02:42:00.608Z,8.9
2022-11-22T02:43:00.362Z,8.9
2022-11-22T02:44:00.580Z,8.9
2022-11-22T02:45:00.329Z,8.9
2022-11-22T02:46:00.325Z,8.9
2022-11-22T02:47:00.319Z,8.9
2022-11-22T02:48:00.528Z,8.9
2022-11-22T02:49:00.318Z,8.9
2022-11-22T02:50:00.332Z,8.9
2022-11-22T02:51:00.337Z,8.9
2022-11-22T02:52:00.291Z,8.9
2022-11-22T02:53:00.278Z,8.9
2022-11-22T02:54:00.465Z,9.0
2022-11-22T02:55:00.296Z,8.9
2022-11-22T02:56:00.307Z,8.9
2022-11-22T02:57:00.351Z,8.9
2022-11-22T02:58:00.352Z,8.9
2022-11-22T02:59:00.417Z,8.9
2022-11-22T03:00:00.469Z,8.8
2022-11-22T03:01:00.385Z,8.8
2022-11-22T03:02:03.359Z,8.7
2022-11-22T03:03:00.349Z,8.7
2022-11-22T03:04:00.319Z,8.7
2022-11-22T03:05:00.330Z,8.7
2022-11-22T03:06:00.524Z,8.6
2022-11-22T03:07:00.319Z,8.6
2022-11-22T03:08:00.291Z,8.6
2022-11-22T03:09:00.346Z,8.7
2022-11-22T03:10:00.282Z,8.7
2022-11-22T03:11:00.306Z,8.7
2022-11-22T03:12:00.502Z,8.7
2022-11-22T03:13:00.381Z,8.7
2022-11-22T03:14:00.619Z,8.7
2022-11-22T03:15:00.301Z,8.7
2022-11-22T03:16:00.316Z,8.7
2022-11-22T03:17:00.319Z,8.7
2022-11-22T03:18:00.456Z,8.7
2022-11-22T03:19:00.320Z,8.8
2022-11-22T03:20:00.322Z,8.8
2022-11-22T03:21:00.339Z,8.8
2022-11-22T03:22:00.418Z,8.8
2022-11-22T03:23:00.349Z,8.8
2022-11-22T03:24:00.485Z,8.8
2022-11-22T03:25:00.352Z,8.8
2022-11-22T03:26:00.320Z,8.8
2022-11-22T03:27:00.387Z,8.8
2022-11-22T03:28:00.321Z,8.8
2022-11-22T03:29:00.424Z,8.8
2022-11-22T03:30:00.375Z,8.8
2022-11-22T03:31:00.325Z,8.8
2022-11-22T03:32:00.299Z,8.8
2022-11-22T03:33:00.355Z,8.8
2022-11-22T03:34:00.303Z,8.8
2022-11-22T03:35:00.304Z,8.7
2022-11-22T03:36:00.428Z,8.7
2022-11-22T03:37:00.304Z,8.7
2022-11-22T03:38:00.317Z,8.7
2022-11-22T03:39:00.296Z,8.7
2022-11-22T03:40:00.316Z,8.7
2022-11-22T03:41:00.332Z,8.7
2022-11-22T03:42:00.452Z,8.7
2022-11-22T03:43:00.355Z,8.7
2022-11-22T03:44:00.464Z,8.7
2022-11-22T03:45:00.388Z,8.7
2022-11-22T03:46:00.338Z,8.7
2022-11-22T03:47:00.290Z,8.8
2022-11-22T03:48:00.376Z,8.8
2022-11-22T03:49:00.290Z,8.8
2022-11-22T03:50:00.324Z,8.8
2022-11-22T03:51:00.311Z,8.8
2022-11-22T03:52:00.281Z,8.8
2022-11-22T03:53:00.344Z,8.8
2022-11-22T03:54:00.564Z,8.8
2022-11-22T03:55:00.364Z,8.8
2022-11-22T03:56:00.316Z,8.8
2022-11-22T03:57:00.314Z,8.8
2022-11-22T03:58:00.349Z,8.8
2022-11-22T03:59:00.335Z,8.8
2022-11-22T04:00:00.447Z,8.7
2022-11-22T04:01:00.628Z,8.7
2022-11-22T04:02:00.479Z,8.7
2022-11-22T04:03:00.391Z,8.7
2022-11-22T04:04:00.364Z,8.7
2022-11-22T04:05:00.302Z,8.7
2022-11-22T04:06:00.449Z,8.7
2022-11-22T04:07:00.310Z,8.7
2022-11-22T04:08:00.339Z,8.7
2022-11-22T04:09:00.392Z,8.7
2022-11-22T04:10:00.328Z,8.7
2022-11-22T04:11:00.281Z,8.7
2022-11-22T04:12:00.522Z,8.7
2022-11-22T04:13:00.355Z,8.7
2022-11-22T04:14:00.313Z,8.8
2022-11-22T04:15:00.355Z,8.8
2022-11-22T04:16:00.436Z,8.8
2022-11-22T04:17:00.316Z,8.8
2022-11-22T04:18:00.533Z,8.9
2022-11-22T04:19:00.334Z,9.0
2022-11-22T04:20:00.332Z,8.9
2022-11-22T04:21:00.423Z,8.9
2022-11-22T04:22:00.321Z,8.9
2022-11-22T04:23:00.406Z,8.9
2022-11-22T04:24:00.565Z,8.9
2022-11-22T04:25:00.277Z,8.9
2022-11-22T04:26:00.335Z,8.9
2022-11-22T04:27:00.280Z,8.9
2022-11-22T04:28:00.331Z,8.9
2022-11-22T04:29:09.842Z,9.0
2022-11-22T04:30:00.655Z,9.0
2022-11-22T04:31:00.357Z,9.0
2022-11-22T04:32:00.380Z,9.1
2022-11-22T04:33:00.292Z,9.1
2022-11-22T04:34:00.320Z,9.1
2022-11-22T04:35:00.355Z,9.1
2022-11-22T04:36:00.480Z,9.2
2022-11-22T04:37:00.323Z,9.2
2022-11-22T04:38:00.331Z,9.3
2022-11-22T04:39:00.287Z,9.3
2022-11-22T04:40:00.331Z,9.3
2022-11-22T04:41:00.340Z,9.3
2022-11-22T04:42:00.478Z,9.4
2022-11-22T04:43:00.341Z,9.4
2022-11-22T04:44:00.325Z,9.4
2022-11-22T04:45:00.279Z,9.4
2022-11-22T04:46:00.315Z,9.4
2022-11-22T04:47:00.455Z,9.4
2022-11-22T04:48:00.403Z,9.4
2022-11-22T04:49:00.309Z,9.4
2022-11-22T04:50:00.309Z,9.4
2022-11-22T04:51:00.310Z,9.4
2022-11-22T04:52:00.303Z,9.4
2022-11-22T04:53:00.294Z,9.5
2022-11-22T04:54:00.425Z,9.5
2022-11-22T04:55:00.336Z,9.5
2022-11-22T04:56:00.339Z,9.6
2022-11-22T04:57:00.311Z,9.6
2022-11-22T04:58:00.634Z,9.6
2022-11-22T04:59:00.369Z,9.6
2022-11-22T05:00:00.541Z,9.7
2022-11-22T05:01:00.392Z,9.7
2022-11-22T05:02:00.510Z,9.7
2022-11-22T05:03:00.275Z,9.8
2022-11-22T05:04:00.343Z,9.8
2022-11-22T05:05:00.370Z,9.8
2022-11-22T05:06:00.449Z,9.8
2022-11-22T05:07:00.295Z,9.8
2022-11-22T05:08:00.353Z,9.8
2022-11-22T05:09:00.290Z,9.9
2022-11-22T05:10:00.307Z,9.9
2022-11-22T05:11:00.316Z,9.9
2022-11-22T05:12:00.438Z,9.9
2022-11-22T05:13:00.302Z,9.9
2022-11-22T05:14:00.307Z,10.0
2022-11-22T05:15:00.275Z,10.0
2022-11-22T05:16:00.290Z,10.0
2022-11-22T05:17:00.489Z,10.1
2022-11-22T05:18:00.413Z,10.1
2022-11-22T05:19:00.308Z,10.2
2022-11-22T05:20:00.307Z,10.2
2022-11-22T05:21:00.309Z,10.3
2022-11-22T05:22:00.341Z,10.3
2022-11-22T05:23:00.394Z,10.3
2022-11-22T05:24:00.518Z,10.3
2022-11-22T05:25:00.319Z,10.3
2022-11-22T05:26:00.319Z,10.3
2022-11-22T05:27:00.305Z,10.3
2022-11-22T05:28:00.297Z,10.4
2022-11-22T05:29:00.322Z,10.4
2022-11-22T05:30:00.515Z,10.4
2022-11-22T05:31:00.328Z,10.4
2022-11-22T05:32:00.444Z,10.4
2022-11-22T05:33:00.304Z,10.4
2022-11-22T05:34:00.331Z,10.4
2022-11-22T05:35:00.399Z,10.4
2022-11-22T05:36:00.586Z,10.4
2022-11-22T05:37:00.295Z,10.5
2022-11-22T05:38:00.353Z,10.6
2022-11-22T05:39:00.334Z,10.6
2022-11-22T05:40:00.307Z,10.7
2022-11-22T05:41:00.309Z,10.7
2022-11-22T05:42:00.464Z,10.7
2022-11-22T05:43:00.367Z,10.8
2022-11-22T05:44:00.323Z,10.8
2022-11-22T05:45:00.310Z,10.9
2022-11-22T05:46:00.324Z,11.1
2022-11-22T05:47:00.466Z,11.6
2022-11-22T05:48:00.406Z,11.7
2022-11-22T05:49:00.324Z,11.5
2022-11-22T05:50:00.327Z,11.5
2022-11-22T05:51:00.305Z,11.5
2022-11-22T05:52:00.311Z,11.7
2022-11-22T05:53:00.286Z,12.1
2022-11-22T05:54:00.483Z,12.2
2022-11-22T05:55:00.392Z,12.1
2022-11-22T05:56:00.285Z,12.0
2022-11-22T05:57:00.372Z,12.1
2022-11-22T05:58:00.403Z,12.4
2022-11-22T05:59:00.384Z,13.1
2022-11-22T06:00:00.490Z,14.3
2022-11-22T06:01:00.306Z,15.1
2022-11-22T06:02:00.656Z,14.6
2022-11-22T06:03:00.380Z,15.0
2022-11-22T06:04:00.330Z,14.5
2022-11-22T06:05:00.352Z,14.1
2022-11-22T06:06:00.480Z,14.0
2022-11-22T06:07:03.250Z,13.8
2022-11-22T06:08:00.466Z,14.1
2022-11-22T06:09:00.339Z,14.0
2022-11-22T06:10:00.309Z,13.8
2022-11-22T06:11:00.339Z,13.8
2022-11-22T06:12:00.451Z,13.7
2022-11-22T06:13:00.428Z,13.5
2022-11-22T06:14:00.406Z,13.4
2022-11-22T06:15:00.283Z,13.3
2022-11-22T06:16:00.372Z,13.2
2022-11-22T06:17:00.483Z,13.2
2022-11-22T06:18:00.400Z,13.2
2022-11-22T06:19:00.345Z,13.1
2022-11-22T06:20:05.755Z,13.1
2022-11-22T06:21:00.328Z,13.1
2022-11-22T06:22:00.325Z,13.1
2022-11-22T06:23:00.369Z,13.1
2022-11-22T06:24:00.553Z,13.1
2022-11-22T06:25:00.304Z,13.1
2022-11-22T06:26:00.276Z,13.1
2022-11-22T06:27:00.315Z,13.1
2022-11-22T06:28:00.380Z,13.1
2022-11-22T06:29:00.329Z,13.1
2022-11-22T06:30:00.530Z,13.1
2022-11-22T06:31:00.280Z,13.1
2022-11-22T06:32:03.795Z,13.1
2022-11-22T06:33:00.324Z,13.1
2022-11-22T06:34:00.325Z,13.0
2022-11-22T06:35:00.304Z,13.0
2022-11-22T06:36:00.493Z,13.0
2022-11-22T06:37:00.298Z,13.1
2022-11-22T06:38:00.844Z,13.1
2022-11-22T06:39:00.299Z,13.1
2022-11-22T06:40:00.350Z,13.1
2022-11-22T06:41:00.346Z,13.1
2022-11-22T06:42:00.462Z,13.1
2022-11-22T06:43:00.300Z,13.1
2022-11-22T06:44:00.328Z,13.1
2022-11-22T06:45:00.297Z,13.1
2022-11-22T06:46:00.347Z,13.0
2022-11-22T06:47:00.452Z,13.0
2022-11-22T06:48:00.467Z,13.0
2022-11-22T06:49:00.296Z,13.0
2022-11-22T06:50:00.307Z,13.0
2022-11-22T06:51:00.345Z,13.1
2022-11-22T06:52:00.352Z,13.0
2022-11-22T06:53:00.294Z,13.0
2022-11-22T06:54:00.478Z,13.0
2022-11-22T06:55:00.292Z,13.0
2022-11-22T06:56:01.576Z,13.1
2022-11-22T06:57:00.319Z,13.1
2022-11-22T06:58:00.870Z,13.2
2022-11-22T06:59:00.385Z,13.3
2022-11-22T07:00:00.451Z,13.3
2022-11-22T07:01:00.377Z,13.3
2022-11-22T07:02:06.080Z,13.3
2022-11-22T07:03:00.310Z,13.4
2022-11-22T07:04:00.331Z,13.4
2022-11-22T07:05:24.502Z,13.5
2022-11-22T07:06:00.433Z,13.5
2022-11-22T07:07:00.298Z,13.5
2022-11-22T07:08:06.677Z,13.6
2022-11-22T07:09:00.327Z,13.6
2022-11-22T07:10:00.381Z,13.6
2022-11-22T07:11:00.380Z,13.6
2022-11-22T07:12:00.516Z,13.7
2022-11-22T07:13:00.326Z,13.7
2022-11-22T07:14:06.596Z,13.7
2022-11-22T07:15:00.336Z,13.7
2022-11-22T07:16:00.314Z,13.6
2022-11-22T07:17:00.406Z,13.6
2022-11-22T07:18:00.549Z,13.7
2022-11-22T07:19:00.469Z,13.7
2022-11-22T07:20:00.419Z,13.7
2022-11-22T07:21:00.367Z,13.7
2022-11-22T07:22:00.342Z,13.8
2022-11-22T07:23:00.353Z,13.8
2022-11-22T07:24:00.577Z,13.8
2022-11-22T07:25:00.294Z,13.9
2022-11-22T07:26:00.297Z,14.0
2022-11-22T07:27:00.406Z,14.0
2022-11-22T07:28:00.296Z,14.0
2022-11-22T07:29:00.314Z,14.0
2022-11-22T07:30:00.551Z,13.9
2022-11-22T07:31:00.324Z,13.9
2022-11-22T07:32:00.579Z,13.9
2022-11-22T07:33:00.624Z,13.8
2022-11-22T07:34:00.305Z,13.8
2022-11-22T07:35:00.315Z,13.7
2022-11-22T07:36:00.532Z,13.7
2022-11-22T07:37:04.764Z,13.7
2022-11-22T07:38:00.291Z,13.7
2022-11-22T07:39:00.317Z,13.7
2022-11-22T07:40:00.339Z,13.7
2022-11-22T07:41:00.340Z,13.8
2022-11-22T07:42:00.453Z,13.9
2022-11-22T07:43:00.289Z,13.9
2022-11-22T07:44:00.326Z,13.9
2022-11-22T07:45:00.327Z,13.9
2022-11-22T07:46:00.391Z,13.9
2022-11-22T07:47:00.394Z,13.9
2022-11-22T07:48:00.541Z,14.0
2022-11-22T07:49:00.339Z,14.0
2022-11-22T07:50:00.288Z,14.0
2022-11-22T07:51:00.294Z,14.0
2022-11-22T07:52:00.338Z,14.0
2022-11-22T07:53:00.314Z,14.0
2022-11-22T07:54:00.542Z,14.0
2022-11-22T07:55:00.284Z,14.1
2022-11-22T07:56:00.313Z,14.2
2022-11-22T07:57:00.312Z,14.2
2022-11-22T07:58:00.391Z,14.3
2022-11-22T07:59:00.357Z,14.3
2022-11-22T08:00:00.580Z,14.4
2022-11-22T08:01:00.362Z,14.5
2022-11-22T08:02:00.427Z,14.6
2022-11-22T08:03:00.615Z,14.7
2022-11-22T08:04:00.568Z,14.8
2022-11-22T08:05:00.373Z,14.8
2022-11-22T08:06:00.596Z,14.9
2022-11-22T08:07:00.305Z,15.0
2022-11-22T08:08:00.286Z,15.0
2022-11-22T08:09:02.049Z,14.9
2022-11-22T08:10:00.292Z,14.9
2022-11-22T08:11:00.518Z,14.8
2022-11-22T08:12:00.847Z,14.8
2022-11-22T08:13:00.726Z,14.8
2022-11-22T08:14:00.754Z,14.9
2022-11-22T08:15:00.438Z,15.1
2022-11-22T08:16:05.117Z,15.2
2022-11-22T08:17:00.666Z,15.5
2022-11-22T08:18:00.757Z,16.1
2022-11-22T08:19:00.697Z,16.6
2022-11-22T08:20:00.316Z,16.9
2022-11-22T08:21:00.433Z,17.6
2022-11-22T08:22:00.436Z,17.5
2022-11-22T08:23:00.445Z,17.2
2022-11-22T08:24:00.753Z,17.4
2022-11-22T08:25:00.463Z,17.7
2022-11-22T08:26:00.429Z,17.9
2022-11-22T08:27:00.539Z,18.1
2022-11-22T08:28:00.400Z,18.1
2022-11-22T08:29:00.497Z,18.0
2022-11-22T08:30:00.697Z,17.9
2022-11-22T08:31:00.491Z,17.7
2022-11-22T08:32:00.370Z,17.6
2022-11-22T08:33:00.572Z,17.6
2022-11-22T08:34:00.488Z,17.2
2022-11-22T08:35:00.780Z,16.7
2022-11-22T08:36:00.677Z,16.4
2022-11-22T08:37:00.317Z,16.3
2022-11-22T08:38:00.337Z,16.1
2022-11-22T08:39:00.501Z,15.8
2022-11-22T08:40:00.345Z,15.7
2022-11-22T08:41:00.354Z,15.6
2022-11-22T08:42:00.532Z,15.5
2022-11-22T08:43:00.366Z,15.4
2022-11-22T08:44:00.770Z,15.2
2022-11-22T08:45:00.485Z,15.0
2022-11-22T08:46:00.350Z,14.8
2022-11-22T08:47:00.399Z,14.7
2022-11-22T08:48:00.549Z,14.7
2022-11-22T08:49:00.367Z,14.7
2022-11-22T08:50:00.733Z,14.7
2022-11-22T08:51:00.397Z,14.6
2022-11-22T08:52:00.393Z,14.6
2022-11-22T08:53:00.324Z,14.5
2022-11-22T08:54:00.625Z,14.4
2022-11-22T08:55:00.604Z,14.4
2022-11-22T08:56:00.631Z,14.4
2022-11-22T08:57:00.691Z,14.3
2022-11-22T08:58:00.483Z,14.3
2022-11-22T08:59:00.421Z,14.3
2022-11-22T09:00:00.780Z,14.3
2022-11-22T09:01:00.398Z,14.2
2022-11-22T09:02:00.531Z,14.3
2022-11-22T09:03:00.330Z,14.3
2022-11-22T09:04:00.345Z,14.3
2022-11-22T09:05:00.474Z,14.3
2022-11-22T09:08:24.926Z,14.6
2022-11-22T09:09:22.014Z,14.6
2022-11-22T09:10:00.304Z,14.7
2022-11-22T09:11:00.310Z,14.7
2022-11-22T09:12:00.451Z,14.6
2022-11-22T09:13:00.402Z,14.5
2022-11-22T09:14:00.474Z,14.4
2022-11-22T09:15:00.399Z,14.3
2022-11-22T09:16:00.294Z,14.2
2022-11-22T09:17:00.284Z,14.2
2022-11-22T09:18:00.486Z,14.3
2022-11-22T09:19:00.408Z,14.4
2022-11-22T09:20:00.533Z,14.5
2022-11-22T09:21:00.315Z,14.8
2022-11-22T09:22:00.387Z,14.9
2022-11-22T09:23:00.363Z,15.2
2022-11-22T09:24:00.589Z,15.4
2022-11-22T09:25:00.327Z,15.9
2022-11-22T09:26:00.299Z,16.0
2022-11-22T09:27:00.310Z,15.8
2022-11-22T09:28:00.342Z,15.8
2022-11-22T09:29:00.327Z,15.7
2022-11-22T09:30:00.530Z,15.6
2022-11-22T09:31:00.375Z,15.5
2022-11-22T09:32:00.362Z,15.5
2022-11-22T09:33:00.327Z,15.4
2022-11-22T09:34:00.344Z,15.4
2022-11-22T09:35:00.458Z,15.4
2022-11-22T09:36:00.620Z,15.4
2022-11-22T09:37:00.326Z,15.3
2022-11-22T09:38:00.383Z,15.2
2022-11-22T09:39:00.324Z,15.1
2022-11-22T09:40:00.295Z,15.1
2022-11-22T09:41:00.296Z,15.0
2022-11-22T09:42:00.427Z,15.0
2022-11-22T09:43:00.309Z,15.0
2022-11-22T09:44:00.342Z,15.0
2022-11-22T09:45:00.313Z,15.0
2022-11-22T09:46:00.297Z,14.9
2022-11-22T09:47:00.518Z,15.0
2022-11-22T09:48:04.154Z,15.2
2022-11-22T09:49:00.389Z,15.5
2022-11-22T09:50:00.367Z,15.4
2022-11-22T09:51:00.463Z,15.6
2022-11-22T09:52:00.574Z,15.7
2022-11-22T09:53:00.446Z,15.8
2022-11-22T09:54:00.582Z,16.0
2022-11-22T09:55:00.482Z,16.0
2022-11-22T09:56:00.300Z,16.1
2022-11-22T09:57:00.294Z,15.8
2022-11-22T09:58:00.342Z,15.7
2022-11-22T09:59:00.320Z,15.7
2022-11-22T10:00:00.576Z,15.6
2022-11-22T10:01:00.350Z,15.6
2022-11-22T10:02:11.568Z,15.7
2022-11-22T10:03:00.955Z,15.7
2022-11-22T10:04:00.324Z,15.7
2022-11-22T10:05:00.328Z,15.7
2022-11-22T10:06:00.466Z,15.7
2022-11-22T10:07:00.479Z,15.6
2022-11-22T10:08:00.372Z,15.6
2022-11-22T10:09:00.324Z,15.5
2022-11-22T10:10:00.325Z,15.4
2022-11-22T10:11:00.303Z,15.4
2022-11-22T10:12:00.446Z,15.4
2022-11-22T10:13:00.314Z,15.3
2022-11-22T10:14:00.327Z,15.3
2022-11-22T10:15:00.337Z,15.3
2022-11-22T10:16:00.309Z,15.2
2022-11-22T10:17:00.321Z,15.2
2022-11-22T10:18:00.439Z,15.2
2022-11-22T10:19:00.307Z,15.1
2022-11-22T10:20:00.331Z,15.0
2022-11-22T10:21:00.358Z,14.9
2022-11-22T10:22:00.407Z,14.8
2022-11-22T10:23:00.440Z,14.8
2022-11-22T10:24:00.486Z,14.8
2022-11-22T10:25:00.327Z,14.8
2022-11-22T10:26:00.304Z,14.8
2022-11-22T10:27:00.364Z,14.8
2022-11-22T10:28:00.872Z,14.7
2022-11-22T10:29:00.301Z,14.7
2022-11-22T10:30:00.510Z,14.6
2022-11-22T10:31:00.299Z,14.5
2022-11-22T10:32:00.356Z,14.4
2022-11-22T10:33:00.330Z,14.3
2022-11-22T10:34:00.298Z,14.3
2022-11-22T10:35:00.314Z,14.3
2022-11-22T10:36:00.501Z,14.3
2022-11-22T10:37:00.339Z,14.2
2022-11-22T10:38:00.297Z,14.1
2022-11-22T10:39:00.484Z,14.0
2022-11-22T10:40:00.318Z,13.9
2022-11-22T10:41:00.341Z,13.9
2022-11-22T10:42:00.426Z,13.9
2022-11-22T10:43:00.339Z,13.9
2022-11-22T10:44:00.309Z,13.8
2022-11-22T10:45:00.345Z,13.8
2022-11-22T10:46:00.323Z,13.7
2022-11-22T10:47:00.329Z,13.7
2022-11-22T10:48:00.478Z,13.6
2022-11-22T10:49:00.310Z,13.6
2022-11-22T10:50:00.363Z,13.6
2022-11-22T10:51:00.337Z,13.6
2022-11-22T10:52:00.332Z,13.6
2022-11-22T10:53:00.320Z,13.6
2022-11-22T10:54:03.506Z,13.6
2022-11-22T10:55:00.399Z,13.5
2022-11-22T10:56:00.342Z,13.5
2022-11-22T10:57:00.325Z,13.6
2022-11-22T10:58:00.338Z,13.7
2022-11-22T10:59:00.375Z,14.0
2022-11-22T11:00:00.529Z,14.0
2022-11-22T11:01:00.403Z,14.0
2022-11-22T11:02:00.351Z,14.0
2022-11-22T11:03:00.281Z,13.9
2022-11-22T11:04:00.315Z,13.8
2022-11-22T11:05:00.310Z,13.7
2022-11-22T11:06:22.667Z,13.6
2022-11-22T11:07:12.746Z,13.6
2022-11-22T11:08:21.965Z,13.6
2022-11-22T11:09:55.177Z,13.6
2022-11-22T11:10:11.437Z,13.6
2022-11-22T11:11:00.343Z,13.6
2022-11-22T11:12:00.443Z,13.6
2022-11-22T11:13:00.329Z,13.6
2022-11-22T11:14:00.302Z,13.6
2022-11-22T11:15:00.392Z,13.5
2022-11-22T11:16:00.367Z,13.4
2022-11-22T11:17:00.331Z,13.4
2022-11-22T11:18:00.563Z,13.4
2022-11-22T11:19:00.330Z,13.4
2022-11-22T11:20:00.312Z,13.4
2022-11-22T11:21:00.318Z,13.4
2022-11-22T11:22:00.315Z,13.4
2022-11-22T11:23:14.897Z,13.4
2022-11-22T11:24:00.557Z,13.4
2022-11-22T11:25:00.359Z,13.3
2022-11-22T11:26:00.910Z,13.3
2022-11-22T11:27:00.627Z,13.3
2022-11-22T11:28:00.320Z,13.3
2022-11-22T11:29:00.345Z,13.3
2022-11-22T11:30:00.557Z,13.4
2022-11-22T11:31:00.431Z,13.4
2022-11-22T11:32:00.387Z,13.4
2022-11-22T11:33:00.355Z,13.4
2022-11-22T11:34:00.399Z,13.4
2022-11-22T11:35:00.325Z,13.4
2022-11-22T11:36:00.525Z,13.4
2022-11-22T11:37:00.401Z,13.5
2022-11-22T11:38:00.333Z,13.5
2022-11-22T11:39:00.457Z,13.5
2022-11-22T11:40:00.366Z,13.6
2022-11-22T11:41:00.304Z,13.6
2022-11-22T11:42:00.448Z,13.6
2022-11-22T11:43:00.311Z,13.6
2022-11-22T11:44:00.351Z,13.6
2022-11-22T11:45:00.323Z,13.6
2022-11-22T11:46:00.294Z,13.6
2022-11-22T11:47:00.341Z,13.6
2022-11-22T11:48:00.533Z,13.6
2022-11-22T11:49:00.351Z,13.6
2022-11-22T11:50:00.334Z,13.6
2022-11-22T11:51:00.301Z,13.6
2022-11-22T11:52:00.308Z,13.6
2022-11-22T11:53:00.377Z,13.6
2022-11-22T11:54:00.524Z,13.6
2022-11-22T11:55:00.346Z,13.6
2022-11-22T11:56:00.320Z,13.6
2022-11-22T11:57:00.329Z,13.5
2022-11-22T11:58:00.310Z,13.5
2022-11-22T11:59:00.353Z,13.5
2022-11-22T12:00:00.444Z,13.4
2022-11-22T12:01:00.329Z,13.4
2022-11-22T12:02:00.347Z,13.4
2022-11-22T12:03:00.287Z,13.3
2022-11-22T12:04:00.308Z,13.3
2022-11-22T12:05:00.380Z,13.3
2022-11-22T12:06:00.541Z,13.3
2022-11-22T12:07:03.284Z,13.3
2022-11-22T12:08:00.475Z,13.3
2022-11-22T12:09:00.362Z,13.3
2022-11-22T12:10:00.472Z,13.2
2022-11-22T12:11:00.355Z,13.2
2022-11-22T12:12:00.460Z,13.1
2022-11-22T12:13:04.452Z,13.1
2022-11-22T12:14:20.484Z,13.1
2022-11-22T12:15:12.103Z,13.1
2022-11-22T12:16:00.351Z,13.1
2022-11-22T12:17:00.390Z,13.1
2022-11-22T12:18:00.468Z,13.0
2022-11-22T12:19:00.294Z,13.0
2022-11-22T12:20:00.317Z,13.0
2022-11-22T12:21:00.310Z,13.0
2022-11-22T12:22:00.357Z,13.1
2022-11-22T12:23:00.316Z,13.0
2022-11-22T12:24:19.832Z,13.1
2022-11-22T12:26:00.365Z,13.0
2022-11-22T12:27:00.298Z,13.0
2022-11-22T12:28:00.298Z,13.0
2022-11-22T12:29:00.315Z,12.9
2022-11-22T12:30:00.558Z,12.9
2022-11-22T12:31:00.554Z,12.8
2022-11-22T12:32:00.512Z,12.8
2022-11-22T12:33:00.345Z,12.8
2022-11-22T12:34:00.317Z,12.7
2022-11-22T12:35:00.355Z,12.7
2022-11-22T12:36:00.446Z,12.7
2022-11-22T12:37:00.356Z,12.7
2022-11-22T12:38:00.332Z,12.7
2022-11-22T12:39:00.314Z,12.7
2022-11-22T12:40:00.327Z,12.7
2022-11-22T12:41:00.448Z,12.7
2022-11-22T12:42:00.460Z,12.6
2022-11-22T12:43:00.346Z,12.6
2022-11-22T12:44:00.333Z,12.6
2022-11-22T12:45:00.329Z,12.6
2022-11-22T12:46:00.390Z,12.6
2022-11-22T12:47:00.355Z,12.5
2022-11-22T12:48:00.446Z,12.5
2022-11-22T12:48:22.509Z,13.1
2022-11-22T12:49:00.285Z,12.5
2022-11-22T12:50:00.338Z,12.5
2022-11-22T12:51:00.398Z,12.5
2022-11-22T12:52:00.339Z,12.5
2022-11-22T12:53:00.329Z,12.4
2022-11-22T12:54:00.474Z,12.4
2022-11-22T12:55:00.326Z,12.4
2022-11-22T12:56:00.421Z,12.4
2022-11-22T12:57:00.387Z,12.4
2022-11-22T12:58:00.301Z,12.4
2022-11-22T12:59:00.413Z,12.4
2022-11-22T13:00:00.451Z,12.3
2022-11-22T13:01:00.402Z,12.3
2022-11-22T13:02:00.284Z,12.3
2022-11-22T13:03:00.298Z,12.3
2022-11-22T13:04:00.302Z,12.3
2022-11-22T13:05:00.325Z,12.3
2022-11-22T13:06:00.469Z,12.3
2022-11-22T13:07:00.309Z,12.3
2022-11-22T13:08:00.281Z,12.2
2022-11-22T13:09:03.772Z,12.2
2022-11-22T13:10:00.332Z,12.2
2022-11-22T13:11:00.485Z,12.2
2022-11-22T13:12:00.406Z,12.1
2022-11-22T13:13:00.379Z,12.1
2022-11-22T13:14:00.325Z,12.1
2022-11-22T13:15:00.296Z,12.1
2022-11-22T13:16:00.295Z,12.1
2022-11-22T13:17:00.298Z,12.1
2022-11-22T13:18:00.583Z,12.1
2022-11-22T13:19:00.328Z,12.1
2022-11-22T13:20:00.314Z,12.1
2022-11-22T13:21:00.424Z,12.0
2022-11-22T13:22:00.492Z,12.0
2022-11-22T13:23:00.536Z,12.0
2022-11-22T13:24:00.908Z,12.0
2022-11-22T13:25:00.313Z,12.0
2022-11-22T13:26:00.457Z,11.9
2022-11-22T13:27:00.307Z,11.9
2022-11-22T13:28:00.352Z,11.9
2022-11-22T13:29:00.309Z,11.9
2022-11-22T13:30:00.678Z,11.9